createdAt,value
2018-06-27T00:01:33.457Z,2.00
2018-06-27T00:04:01.899Z,1.57
2018-06-27T00:06:31.097Z,2.10
2018-06-27T00:08:59.830Z,1.37
2018-06-27T00:11:28.250Z,1.40
2018-06-27T00:13:57.541Z,1.43
2018-06-27T00:16:26.628Z,1.50
2018-06-27T00:18:55.509Z,1.57
2018-06-27T00:21:24.074Z,1.90
2018-06-27T00:23:54.381Z,1.87
2018-06-27T00:26:23.285Z,1.77
2018-06-27T00:28:51.725Z,1.50
2018-06-27T00:31:20.385Z,1.40
2018-06-27T00:33:48.866Z,1.80
2018-06-27T00:36:17.785Z,1.40
2018-06-27T00:38:46.835Z,1.67
2018-06-27T00:41:15.837Z,1.70
2018-06-27T00:43:44.269Z,1.60
2018-06-27T00:46:13.213Z,1.80
2018-06-27T00:48:42.051Z,1.70
2018-06-27T00:51:10.501Z,2.00
2018-06-27T00:53:46.116Z,1.73
2018-06-27T00:56:14.977Z,1.73
2018-06-27T00:58:43.563Z,2.23
2018-06-27T01:01:12.869Z,1.83
2018-06-27T01:03:41.309Z,1.70
2018-06-27T01:06:10.153Z,2.30
2018-06-27T01:08:39.605Z,2.67
2018-06-27T01:11:08.030Z,2.30
2018-06-27T01:13:36.801Z,2.20
2018-06-27T01:16:05.561Z,2.67
2018-06-27T01:18:34.148Z,2.60
2018-06-27T01:21:02.655Z,2.03
2018-06-27T01:23:31.114Z,2.03
2018-06-27T01:26:01.514Z,2.30
2018-06-27T01:28:30.151Z,2.33
2018-06-27T01:30:59.670Z,2.27
2018-06-27T01:33:28.089Z,2.40
2018-06-27T01:35:58.142Z,2.53
2018-06-27T01:38:26.583Z,2.70
2018-06-27T01:40:58.718Z,2.60
2018-06-27T01:43:27.277Z,2.40
2018-06-27T01:45:55.698Z,2.17
2018-06-27T01:48:24.837Z,2.80
2018-06-27T01:50:53.471Z,2.77
2018-06-27T01:53:21.901Z,3.00
2018-06-27T01:55:50.593Z,2.77
2018-06-27T01:58:19.148Z,3.00
2018-06-27T02:00:47.565Z,2.80
2018-06-27T02:03:16.646Z,2.93
2018-06-27T02:05:45.229Z,2.40
2018-06-27T02:08:14.782Z,2.50
2018-06-27T02:10:43.743Z,2.50
2018-06-27T02:13:12.194Z,2.80
2018-06-27T02:15:40.607Z,2.77
2018-06-27T02:18:09.417Z,2.63
2018-06-27T02:20:37.890Z,2.83
2018-06-27T02:23:07.881Z,2.70
2018-06-27T02:25:36.949Z,2.63
2018-06-27T02:28:05.466Z,2.83
2018-06-27T02:30:33.982Z,3.00
2018-06-27T02:33:02.677Z,3.07
2018-06-27T02:35:31.193Z,2.87
2018-06-27T02:37:59.618Z,2.93
2018-06-27T02:40:28.089Z,2.70
2018-06-27T02:42:56.717Z,3.03
2018-06-27T02:45:25.221Z,2.70
2018-06-27T02:47:53.835Z,2.77
2018-06-27T02:50:22.993Z,2.60
2018-06-27T02:52:51.653Z,2.63
2018-06-27T02:55:20.067Z,2.67
2018-06-27T02:57:49.459Z,2.30
2018-06-27T03:00:17.889Z,2.63
2018-06-27T03:02:47.210Z,2.60
2018-06-27T03:05:16.478Z,2.50
2018-06-27T03:07:45.846Z,2.77
2018-06-27T03:10:14.269Z,2.50
2018-06-27T03:12:43.080Z,2.50
2018-06-27T03:15:11.906Z,2.87
2018-06-27T03:17:41.364Z,2.60
2018-06-27T03:20:09.851Z,2.60
2018-06-27T03:22:38.582Z,2.70
2018-06-27T03:25:07.018Z,2.60
2018-06-27T03:27:35.493Z,2.30
2018-06-27T03:30:04.118Z,2.40
2018-06-27T03:32:32.905Z,2.13
2018-06-27T03:35:02.010Z,2.67
2018-06-27T03:37:30.706Z,2.53
2018-06-27T03:39:59.126Z,2.83
2018-06-27T03:42:28.378Z,2.20
2018-06-27T03:44:57.073Z,2.63
2018-06-27T03:47:26.241Z,2.50
2018-06-27T03:49:54.697Z,2.20
2018-06-27T03:52:23.681Z,3.23
2018-06-27T03:54:52.497Z,2.80
2018-06-27T03:57:20.950Z,2.50
2018-06-27T03:59:49.390Z,2.67
2018-06-27T04:02:18.177Z,2.20
2018-06-27T04:04:46.614Z,2.50
2018-06-27T04:07:15.065Z,2.43
2018-06-27T04:09:44.466Z,2.10
2018-06-27T04:12:12.957Z,2.20
2018-06-27T04:14:42.426Z,2.20
2018-06-27T04:17:10.937Z,2.20
2018-06-27T04:19:40.005Z,2.10
2018-06-27T04:22:08.457Z,1.90
2018-06-27T04:27:06.992Z,2.10
2018-06-27T04:29:35.420Z,2.07
2018-06-27T04:32:03.860Z,2.40
2018-06-27T04:34:32.763Z,2.27
2018-06-27T04:37:01.746Z,2.33
2018-06-27T04:39:30.158Z,2.30
2018-06-27T04:42:00.819Z,2.07
2018-06-27T04:44:29.270Z,1.90
2018-06-27T04:46:57.974Z,2.20
2018-06-27T04:49:26.810Z,2.13
2018-06-27T04:51:55.269Z,1.67
2018-06-27T04:54:23.687Z,2.10
2018-06-27T04:56:53.162Z,1.83
2018-06-27T04:59:21.597Z,1.80
2018-06-27T05:01:50.062Z,1.80
2018-06-27T05:04:18.729Z,1.80
2018-06-27T05:06:47.229Z,2.07
2018-06-27T05:09:15.681Z,1.87
2018-06-27T05:11:44.716Z,1.80
2018-06-27T05:14:13.141Z,2.00
2018-06-27T05:16:41.954Z,1.73
2018-06-27T05:19:11.133Z,1.80
2018-06-27T05:21:39.599Z,1.63
2018-06-27T05:24:08.057Z,1.70
2018-06-27T05:26:37.264Z,1.87
2018-06-27T05:29:05.792Z,1.80
2018-06-27T05:31:34.372Z,1.83
2018-06-27T05:34:03.072Z,1.60
2018-06-27T05:36:31.999Z,1.80
2018-06-27T05:39:00.457Z,1.60
2018-06-27T05:41:30.343Z,1.60
2018-06-27T05:43:58.858Z,1.50
2018-06-27T05:46:27.366Z,1.37
2018-06-27T05:48:57.117Z,1.20
2018-06-27T05:51:25.614Z,1.77
2018-06-27T05:53:54.213Z,1.53
2018-06-27T05:56:23.235Z,1.40
2018-06-27T05:58:51.889Z,1.40
2018-06-27T06:01:20.605Z,1.30
2018-06-27T06:03:49.182Z,1.17
2018-06-27T06:06:17.614Z,1.40
2018-06-27T06:08:46.133Z,1.37
2018-06-27T06:11:14.700Z,1.37
2018-06-27T06:13:43.149Z,1.70
2018-06-27T06:16:12.105Z,1.10
2018-06-27T06:18:41.541Z,1.37
2018-06-27T06:21:09.992Z,1.20
2018-06-27T06:23:38.423Z,1.13
2018-06-27T06:26:07.093Z,1.10
2018-06-27T06:28:35.549Z,1.23
2018-06-27T06:31:04.039Z,1.10
2018-06-27T06:33:33.093Z,1.10
2018-06-27T06:36:01.523Z,0.80
2018-06-27T06:38:30.781Z,1.20
2018-06-27T06:40:59.793Z,0.97
2018-06-27T06:43:28.693Z,1.10
2018-06-27T06:45:57.207Z,1.10
2018-06-27T06:48:26.621Z,1.20
2018-06-27T06:50:55.109Z,1.30
2018-06-27T06:53:23.537Z,1.20
2018-06-27T06:55:52.117Z,1.47
2018-06-27T06:58:20.545Z,1.20
2018-06-27T07:00:49.114Z,1.27
2018-06-27T07:03:17.743Z,1.10
2018-06-27T07:05:46.625Z,1.10
2018-06-27T07:08:15.107Z,1.30
2018-06-27T07:10:43.658Z,1.50
2018-06-27T07:13:12.485Z,1.30
2018-06-27T07:15:40.919Z,1.10
2018-06-27T07:18:09.558Z,1.63
2018-06-27T07:20:38.294Z,1.40
2018-06-27T07:23:06.914Z,1.10
2018-06-27T07:25:35.573Z,1.13
2018-06-27T07:28:04.353Z,1.20
2018-06-27T07:30:33.793Z,1.10
2018-06-27T07:33:02.350Z,1.27
2018-06-27T07:35:30.925Z,1.70
2018-06-27T07:38:00.314Z,1.23
2018-06-27T07:40:29.247Z,1.17
2018-06-27T07:42:57.764Z,1.10
2018-06-27T07:45:26.249Z,1.00
2018-06-27T07:47:54.954Z,1.20
2018-06-27T07:50:23.701Z,1.15
2018-06-27T07:52:52.395Z,1.10
2018-06-27T07:55:20.985Z,1.20
2018-06-27T07:57:49.430Z,1.20
2018-06-27T08:00:18.126Z,1.30
2018-06-27T08:02:47.012Z,0.98
2018-06-27T08:05:15.494Z,1.25
2018-06-27T08:07:44.041Z,1.25
2018-06-27T08:10:12.990Z,1.20
2018-06-27T08:12:41.579Z,1.00
2018-06-27T08:15:10.000Z,1.10
2018-06-27T08:17:38.585Z,1.10
2018-06-27T08:20:07.085Z,1.47
2018-06-27T08:22:35.723Z,1.30
2018-06-27T08:25:04.888Z,1.40
2018-06-27T08:27:33.302Z,1.30
2018-06-27T08:30:01.874Z,1.25
2018-06-27T08:32:30.782Z,1.20
2018-06-27T08:34:59.195Z,1.12
2018-06-27T08:37:27.929Z,1.17
2018-06-27T08:39:56.557Z,1.30
2018-06-27T08:42:25.017Z,1.37
2018-06-27T08:44:53.440Z,1.37
2018-06-27T08:47:22.025Z,1.15
2018-06-27T08:49:50.584Z,1.20
2018-06-27T08:52:19.122Z,1.00
2018-06-27T08:54:48.393Z,1.17
2018-06-27T08:57:18.321Z,2.95
2018-06-27T08:59:47.242Z,1.17
2018-06-27T09:02:15.898Z,1.10
2018-06-27T09:04:44.607Z,0.90
2018-06-27T09:07:13.101Z,1.17
2018-06-27T09:09:42.169Z,1.02
2018-06-27T09:12:10.599Z,1.00
2018-06-27T09:14:39.061Z,1.80
2018-06-27T09:17:07.898Z,1.20
2018-06-27T09:19:36.330Z,1.32
2018-06-27T09:22:05.009Z,1.40
2018-06-27T09:24:34.174Z,1.12
2018-06-27T09:27:02.603Z,1.00
2018-06-27T09:29:31.017Z,1.15
2018-06-27T09:31:59.649Z,1.27
2018-06-27T09:34:28.082Z,0.90
2018-06-27T09:36:56.566Z,1.00
2018-06-27T09:39:26.386Z,1.07
2018-06-27T09:41:55.085Z,1.10
2018-06-27T09:44:24.042Z,1.32
2018-06-27T09:46:53.043Z,1.35
2018-06-27T09:49:21.842Z,1.20
2018-06-27T09:51:50.269Z,1.82
2018-06-27T09:54:19.098Z,1.35
2018-06-27T09:56:47.920Z,1.40
2018-06-27T09:59:16.329Z,1.15
2018-06-27T10:01:44.974Z,1.30
2018-06-27T10:04:13.733Z,1.10
2018-06-27T10:06:42.502Z,1.40
2018-06-27T10:09:11.492Z,1.30
2018-06-27T10:11:40.069Z,1.45
2018-06-27T10:14:08.498Z,1.15
2018-06-27T10:16:37.244Z,1.27
2018-06-27T10:19:06.028Z,1.20
2018-06-27T10:21:34.614Z,1.47
2018-06-27T10:24:03.283Z,1.90
2018-06-27T10:26:32.089Z,2.02
2018-06-27T10:29:00.628Z,1.27
2018-06-27T10:31:29.660Z,1.25
2018-06-27T10:33:58.125Z,1.40
2018-06-27T10:36:26.672Z,1.67
2018-06-27T10:38:55.139Z,1.35
2018-06-27T10:41:23.686Z,1.02
2018-06-27T10:43:52.649Z,1.42
2018-06-27T10:46:21.463Z,1.50
2018-06-27T10:48:49.916Z,1.35
2018-06-27T10:51:19.037Z,1.20
2018-06-27T10:53:47.651Z,1.20
2018-06-27T10:56:16.079Z,1.30
2018-06-27T10:58:44.687Z,1.30
2018-06-27T11:01:13.727Z,1.20
2018-06-27T11:03:42.118Z,1.37
2018-06-27T11:06:10.764Z,1.12
2018-06-27T11:08:39.670Z,1.22
2018-06-27T11:11:08.108Z,1.10
2018-06-27T11:13:36.849Z,1.30
2018-06-27T11:16:05.475Z,1.10
2018-06-27T11:18:33.987Z,1.40
2018-06-27T11:21:02.516Z,1.15
2018-06-27T11:23:31.097Z,1.20
2018-06-27T11:25:59.557Z,1.60
2018-06-27T11:28:28.258Z,1.22
2018-06-27T11:30:57.284Z,1.10
2018-06-27T11:33:25.746Z,1.50
2018-06-27T11:35:54.885Z,1.20
2018-06-27T11:38:23.463Z,1.07
2018-06-27T11:40:51.860Z,1.20
2018-06-27T11:43:20.765Z,0.90
2018-06-27T11:45:49.269Z,1.00
2018-06-27T11:48:17.693Z,1.05
2018-06-27T11:50:46.198Z,1.07
2018-06-27T11:53:14.729Z,1.42
2018-06-27T11:55:43.182Z,1.00
2018-06-27T11:58:12.140Z,1.07
2018-06-27T12:00:40.652Z,1.00
2018-06-27T12:03:09.118Z,1.45
2018-06-27T12:05:37.992Z,1.15
2018-06-27T12:08:07.047Z,1.10
2018-06-27T12:10:35.814Z,1.10
2018-06-27T12:13:04.428Z,1.10
2018-06-27T12:15:33.906Z,1.45
2018-06-27T12:18:02.379Z,1.20
2018-06-27T12:20:30.820Z,0.93
2018-06-27T12:22:59.582Z,1.02
2018-06-27T12:25:28.038Z,1.12
2018-06-27T12:27:56.611Z,1.10
2018-06-27T12:30:25.753Z,1.12
2018-06-27T12:32:54.451Z,1.02
2018-06-27T12:35:23.245Z,1.15
2018-06-27T12:37:52.394Z,0.90
2018-06-27T12:40:21.865Z,1.70
2018-06-27T12:42:50.294Z,1.00
2018-06-27T12:45:18.976Z,1.15
2018-06-27T12:47:47.753Z,1.10
2018-06-27T12:50:16.279Z,1.20
2018-06-27T12:52:44.871Z,1.65
2018-06-27T12:55:14.076Z,1.10
2018-06-27T12:57:42.684Z,1.50
2018-06-27T13:00:11.595Z,1.10
2018-06-27T13:02:40.538Z,1.22
2018-06-27T13:05:09.747Z,1.10
2018-06-27T13:07:38.471Z,0.95
2018-06-27T13:10:08.193Z,1.17
2018-06-27T13:12:36.978Z,0.88
2018-06-27T13:15:06.652Z,0.85
2018-06-27T13:17:35.077Z,0.80
2018-06-27T13:20:03.670Z,1.10
2018-06-27T13:22:32.631Z,0.90
2018-06-27T13:25:01.086Z,1.00
2018-06-27T13:27:30.414Z,1.02
2018-06-27T13:29:58.895Z,0.80
2018-06-27T13:32:27.684Z,0.88
2018-06-27T13:34:57.140Z,0.82
2018-06-27T13:37:26.850Z,0.85
2018-06-27T13:39:55.870Z,0.90
2018-06-27T13:42:24.858Z,0.85
2018-06-27T13:44:53.597Z,0.90
2018-06-27T13:47:22.900Z,0.70
2018-06-27T13:49:51.398Z,1.10
2018-06-27T13:52:20.265Z,1.62
2018-06-27T13:54:53.945Z,0.90
2018-06-27T13:57:22.864Z,0.78
2018-06-27T13:59:51.382Z,1.00
2018-06-27T14:02:20.255Z,0.80
2018-06-27T14:04:48.787Z,1.20
2018-06-27T14:07:17.237Z,0.95
2018-06-27T14:09:45.670Z,0.70
2018-06-27T14:12:14.963Z,0.70
2018-06-27T14:14:43.566Z,1.30
2018-06-27T14:17:12.014Z,1.50
2018-06-27T14:19:40.572Z,1.40
2018-06-27T14:22:09.705Z,1.50
2018-06-27T14:24:38.730Z,1.77
2018-06-27T14:27:08.114Z,1.60
2018-06-27T14:29:37.483Z,2.30
2018-06-27T14:32:06.037Z,4.05
2018-06-27T14:34:35.570Z,2.10
2018-06-27T14:37:04.155Z,1.55
2018-06-27T14:39:32.565Z,1.65
2018-06-27T14:42:01.346Z,1.92
2018-06-27T14:44:30.101Z,2.10
2018-06-27T14:46:58.518Z,1.27
2018-06-27T14:49:27.422Z,2.00
2018-06-27T14:51:56.957Z,2.02
2018-06-27T14:54:25.446Z,1.80
2018-06-27T14:56:53.948Z,1.98
2018-06-27T14:59:22.483Z,2.65
2018-06-27T15:01:50.930Z,1.95
2018-06-27T15:04:25.939Z,2.10
2018-06-27T15:06:54.698Z,1.70
2018-06-27T15:09:23.137Z,2.42
2018-06-27T15:11:51.730Z,1.77
2018-06-27T15:14:20.785Z,1.87
2018-06-27T15:16:49.445Z,1.62
2018-06-27T15:19:18.986Z,2.08
2018-06-27T15:21:48.404Z,1.85
2018-06-27T15:24:17.138Z,1.77
2018-06-27T15:26:46.069Z,1.95
2018-06-27T15:29:15.069Z,1.72
2018-06-27T15:31:43.589Z,1.72
2018-06-27T15:34:12.144Z,2.30
2018-06-27T15:36:41.250Z,1.90
2018-06-27T15:39:10.843Z,1.67
2018-06-27T15:41:39.603Z,2.02
2018-06-27T15:44:08.418Z,2.15
2018-06-27T15:46:37.275Z,1.92
2018-06-27T15:49:07.573Z,1.72
2018-06-27T15:51:36.142Z,2.05
2018-06-27T15:54:04.602Z,1.92
2018-06-27T15:56:33.175Z,2.00
2018-06-27T15:59:02.013Z,1.80
2018-06-27T16:01:31.512Z,2.00
2018-06-27T16:04:00.013Z,1.95
2018-06-27T16:06:28.727Z,2.30
2018-06-27T16:08:57.194Z,2.02
2018-06-27T16:11:25.795Z,2.08
2018-06-27T16:13:54.589Z,1.80
2018-06-27T16:16:23.037Z,2.30
2018-06-27T16:18:51.757Z,2.10
2018-06-27T16:21:20.850Z,2.05
2018-06-27T16:23:49.322Z,2.15
2018-06-27T16:26:17.875Z,2.10
2018-06-27T16:28:46.656Z,2.30
2018-06-27T16:31:15.082Z,2.60
2018-06-27T16:33:43.971Z,3.85
2018-06-27T16:36:12.658Z,4.12
2018-06-27T16:38:41.446Z,2.90
2018-06-27T16:41:09.988Z,2.45
2018-06-27T16:43:38.467Z,2.60
2018-06-27T16:46:06.958Z,3.17
2018-06-27T16:48:35.402Z,2.55
2018-06-27T16:51:04.049Z,2.72
2018-06-27T16:53:32.470Z,2.33
2018-06-27T16:56:01.120Z,2.45
2018-06-27T16:58:29.675Z,3.35
2018-06-27T17:00:58.237Z,4.10
2018-06-27T17:03:27.135Z,2.85
2018-06-27T17:05:55.993Z,1.90
2018-06-27T17:08:24.454Z,2.12
2018-06-27T17:10:53.501Z,2.10
2018-06-27T17:13:21.947Z,2.33
2018-06-27T17:15:50.455Z,2.05
2018-06-27T17:18:19.263Z,2.55
2018-06-27T17:20:48.190Z,2.72
2018-06-27T17:23:16.980Z,2.27
2018-06-27T17:25:45.670Z,2.98
2018-06-27T17:28:14.094Z,2.67
2018-06-27T17:30:43.418Z,3.17
2018-06-27T17:33:12.510Z,2.77
2018-06-27T17:35:40.967Z,3.58
2018-06-27T17:38:09.551Z,2.58
2018-06-27T17:40:38.885Z,2.90
2018-06-27T17:43:07.340Z,3.10
2018-06-27T17:45:35.806Z,2.40
2018-06-27T17:48:04.695Z,2.72
2018-06-27T17:50:33.146Z,2.30
2018-06-27T17:53:01.974Z,2.08
2018-06-27T17:55:30.625Z,2.50
2018-06-27T17:57:59.238Z,2.47
2018-06-27T18:00:27.683Z,2.17
2018-06-27T18:02:57.286Z,2.00
2018-06-27T18:05:26.042Z,2.03
2018-06-27T18:07:54.466Z,2.27
2018-06-27T18:10:23.745Z,2.57
2018-06-27T18:12:52.818Z,2.20
2018-06-27T18:15:21.273Z,2.23
2018-06-27T18:17:49.852Z,2.37
2018-06-27T18:20:18.340Z,2.30
2018-06-27T18:22:47.081Z,2.40
2018-06-27T18:25:15.659Z,2.30
2018-06-27T18:27:44.252Z,2.37
2018-06-27T18:30:13.318Z,2.23
2018-06-27T18:32:41.906Z,2.10
2018-06-27T18:35:10.609Z,2.40
2018-06-27T18:37:39.376Z,3.00
2018-06-27T18:40:08.746Z,2.30
2018-06-27T18:42:37.959Z,2.27
2018-06-27T18:45:07.178Z,2.23
2018-06-27T18:47:35.667Z,2.20
2018-06-27T18:50:04.278Z,2.50
2018-06-27T18:52:32.738Z,2.33
2018-06-27T18:55:01.222Z,2.37
2018-06-27T18:57:29.814Z,2.40
2018-06-27T18:59:58.257Z,2.40
2018-06-27T19:02:26.823Z,2.80
2018-06-27T19:04:55.626Z,2.17
2018-06-27T19:07:25.101Z,2.63
2018-06-27T19:09:53.574Z,2.67
2018-06-27T19:12:22.275Z,2.80
2018-06-27T19:14:51.145Z,2.70
2018-06-27T19:17:19.814Z,2.67
2018-06-27T19:19:48.277Z,2.40
2018-06-27T19:22:16.824Z,2.50
2018-06-27T19:24:45.717Z,2.50
2018-06-27T19:27:14.271Z,2.30
2018-06-27T19:29:43.029Z,2.50
2018-06-27T19:32:11.575Z,2.43
2018-06-27T19:34:39.990Z,2.30
2018-06-27T19:37:08.829Z,2.80
2018-06-27T19:39:38.600Z,2.50
2018-06-27T19:42:07.042Z,2.60
2018-06-27T19:44:36.290Z,2.50
2018-06-27T19:47:04.996Z,2.67
2018-06-27T19:49:33.373Z,2.40
2018-06-27T19:52:02.274Z,2.63
2018-06-27T19:54:30.805Z,2.57
2018-06-27T19:56:59.301Z,2.67
2018-06-27T19:59:27.822Z,2.60
2018-06-27T20:01:58.038Z,2.97
2018-06-27T20:04:26.558Z,2.73
2018-06-27T20:06:54.974Z,2.70
2018-06-27T20:09:23.453Z,3.10
2018-06-27T20:11:51.889Z,2.40
2018-06-27T20:14:20.437Z,3.90
2018-06-27T20:16:49.206Z,3.53
2018-06-27T20:19:17.760Z,2.90
2018-06-27T20:21:46.402Z,2.50
2018-06-27T20:24:21.491Z,2.90
2018-06-27T20:26:50.497Z,3.07
2018-06-27T20:29:18.941Z,2.73
2018-06-27T20:31:47.926Z,2.70
2018-06-27T20:34:16.581Z,2.47
2018-06-27T20:36:45.049Z,2.77
2018-06-27T20:39:13.930Z,2.93
2018-06-27T20:41:42.730Z,2.93
2018-06-27T20:44:11.158Z,4.33
2018-06-27T20:46:39.977Z,2.83
2018-06-27T20:49:11.341Z,2.87
2018-06-27T20:51:40.370Z,3.10
2018-06-27T20:54:09.362Z,3.00
2018-06-27T20:56:37.820Z,3.13
2018-06-27T20:59:06.394Z,3.13
2018-06-27T21:01:35.679Z,2.27
2018-06-27T21:04:04.266Z,2.80
2018-06-27T21:06:32.819Z,2.27
2018-06-27T21:09:01.495Z,2.13
2018-06-27T21:11:29.982Z,2.10
2018-06-27T21:13:58.426Z,2.00
2018-06-27T21:16:27.462Z,1.50
2018-06-27T21:18:56.718Z,1.40
2018-06-27T21:21:25.222Z,1.63
2018-06-27T21:23:54.517Z,1.57
2018-06-27T21:26:23.118Z,1.33
2018-06-27T21:28:52.149Z,1.60
2018-06-27T21:31:21.414Z,1.37
2018-06-27T21:33:49.914Z,1.50
2018-06-27T21:36:18.837Z,1.70
2018-06-27T21:38:47.522Z,1.60
2018-06-27T21:41:16.950Z,1.30
2018-06-27T21:43:45.475Z,1.53
2018-06-27T21:46:14.126Z,1.30
2018-06-27T21:48:42.742Z,1.40
2018-06-27T21:51:11.278Z,1.50
2018-06-27T21:53:40.410Z,1.40
2018-06-27T21:56:08.885Z,1.60
2018-06-27T21:58:37.358Z,1.60
2018-06-27T22:01:05.986Z,1.43
2018-06-27T22:03:34.417Z,1.43
2018-06-27T22:06:02.925Z,1.40
2018-06-27T22:08:31.997Z,1.37
2018-06-27T22:11:00.459Z,1.50
2018-06-27T22:13:28.938Z,1.80
2018-06-27T22:15:57.635Z,1.70
2018-06-27T22:18:26.082Z,1.50
2018-06-27T22:20:54.626Z,1.80
2018-06-27T22:23:23.210Z,1.60
2018-06-27T22:25:51.897Z,1.60
2018-06-27T22:28:20.393Z,1.40
2018-06-27T22:30:49.562Z,1.70
2018-06-27T22:33:18.414Z,1.30
2018-06-27T22:35:46.882Z,1.40
2018-06-27T22:38:15.618Z,1.80
2018-06-27T22:40:44.077Z,1.47
2018-06-27T22:43:12.534Z,1.40
2018-06-27T22:45:41.446Z,1.47
2018-06-27T22:48:09.967Z,1.57
2018-06-27T22:50:38.686Z,1.50
2018-06-27T22:53:07.209Z,1.63
2018-06-27T22:55:35.960Z,1.60
2018-06-27T22:58:04.585Z,1.30
2018-06-27T23:00:33.474Z,1.40
2018-06-27T23:03:01.958Z,1.40
2018-06-27T23:05:31.482Z,1.47
2018-06-27T23:08:00.023Z,1.30
2018-06-27T23:10:28.571Z,1.37
2018-06-27T23:12:57.941Z,1.53
2018-06-27T23:15:26.818Z,1.33
2018-06-27T23:17:56.477Z,1.37
2018-06-27T23:20:25.127Z,1.30
2018-06-27T23:22:53.831Z,1.40
2018-06-27T23:25:22.271Z,1.27
2018-06-27T23:27:50.993Z,1.33
2018-06-27T23:30:19.865Z,1.53
2018-06-27T23:32:49.254Z,1.40
2018-06-27T23:35:17.844Z,1.43
2018-06-27T23:37:46.382Z,1.70
2018-06-27T23:40:14.874Z,1.40
2018-06-27T23:42:43.769Z,1.17
2018-06-27T23:45:12.357Z,1.30
2018-06-27T23:47:40.793Z,1.37
2018-06-27T23:50:09.390Z,1.30
2018-06-27T23:52:38.478Z,1.20
2018-06-27T23:55:07.601Z,1.40
2018-06-27T23:57:36.453Z,1.33
